sensor_id;sensor_type;location;lat;lon;timestamp;P1;durP1;ratioP1;P2;durP2;ratioP2
12474;SDS011;6302;42.624;23.334;2022-12-18T00:01:58;4.90;;;4.23;;
12474;SDS011;6302;42.624;23.334;2022-12-18T00:04:26;5.13;;;4.50;;
12474;SDS011;6302;42.624;23.334;2022-12-18T00:06:53;5.07;;;4.43;;
12474;SDS011;6302;42.624;23.334;2022-12-18T00:09:20;5.23;;;4.73;;
12474;SDS011;6302;42.624;23.334;2022-12-18T00:11:47;5.63;;;4.50;;
12474;SDS011;6302;42.624;23.334;2022-12-18T00:14:15;6.27;;;5.40;;
12474;SDS011;6302;42.624;23.334;2022-12-18T00:16:44;5.87;;;5.27;;
12474;SDS011;6302;42.624;23.334;2022-12-18T00:19:11;5.50;;;5.00;;
12474;SDS011;6302;42.624;23.334;2022-12-18T00:21:39;6.47;;;5.87;;
12474;SDS011;6302;42.624;23.334;2022-12-18T00:24:06;6.13;;;5.07;;
12474;SDS011;6302;42.624;23.334;2022-12-18T00:26:34;5.80;;;5.10;;
12474;SDS011;6302;42.624;23.334;2022-12-18T00:29:03;6.50;;;5.70;;
12474;SDS011;6302;42.624;23.334;2022-12-18T00:31:33;6.23;;;5.63;;
12474;SDS011;6302;42.624;23.334;2022-12-18T00:34:00;7.50;;;6.30;;
12474;SDS011;6302;42.624;23.334;2022-12-18T00:36:27;6.77;;;6.17;;
12474;SDS011;6302;42.624;23.334;2022-12-18T00:38:56;17.77;;;11.60;;
12474;SDS011;6302;42.624;23.334;2022-12-18T00:41:24;8.87;;;7.27;;
12474;SDS011;6302;42.624;23.334;2022-12-18T00:44:09;7.83;;;6.30;;
12474;SDS011;6302;42.624;23.334;2022-12-18T00:46:38;13.33;;;9.00;;
12474;SDS011;6302;42.624;23.334;2022-12-18T00:49:05;7.57;;;6.33;;
12474;SDS011;6302;42.624;23.334;2022-12-18T00:51:32;7.07;;;6.37;;
12474;SDS011;6302;42.624;23.334;2022-12-18T00:53:59;7.13;;;5.53;;
12474;SDS011;6302;42.624;23.334;2022-12-18T00:56:26;8.10;;;5.90;;
12474;SDS011;6302;42.624;23.334;2022-12-18T00:58:52;7.43;;;6.60;;
12474;SDS011;6302;42.624;23.334;2022-12-18T01:01:19;7.27;;;6.17;;
12474;SDS011;6302;42.624;23.334;2022-12-18T01:03:47;7.47;;;6.60;;
12474;SDS011;6302;42.624;23.334;2022-12-18T01:06:15;7.03;;;6.27;;
12474;SDS011;6302;42.624;23.334;2022-12-18T01:08:42;7.23;;;6.27;;
12474;SDS011;6302;42.624;23.334;2022-12-18T01:11:11;10.33;;;6.57;;
12474;SDS011;6302;42.624;23.334;2022-12-18T01:13:41;8.40;;;6.60;;
12474;SDS011;6302;42.624;23.334;2022-12-18T01:16:08;6.90;;;6.20;;
12474;SDS011;6302;42.624;23.334;2022-12-18T01:18:37;6.20;;;5.60;;
12474;SDS011;6302;42.624;23.334;2022-12-18T01:21:07;7.40;;;6.50;;
12474;SDS011;6302;42.624;23.334;2022-12-18T01:23:35;7.13;;;6.43;;
12474;SDS011;6302;42.624;23.334;2022-12-18T01:26:05;6.93;;;6.23;;
12474;SDS011;6302;42.624;23.334;2022-12-18T01:28:32;7.73;;;6.23;;
12474;SDS011;6302;42.624;23.334;2022-12-18T01:31:09;7.37;;;5.73;;
12474;SDS011;6302;42.624;23.334;2022-12-18T01:33:36;6.47;;;5.73;;
12474;SDS011;6302;42.624;23.334;2022-12-18T01:36:03;9.30;;;7.23;;
12474;SDS011;6302;42.624;23.334;2022-12-18T01:38:32;8.37;;;6.90;;
12474;SDS011;6302;42.624;23.334;2022-12-18T01:40:59;9.27;;;7.67;;
12474;SDS011;6302;42.624;23.334;2022-12-18T01:46:13;9.67;;;7.70;;
12474;SDS011;6302;42.624;23.334;2022-12-18T01:48:40;11.03;;;8.00;;
12474;SDS011;6302;42.624;23.334;2022-12-18T01:51:08;13.00;;;8.43;;
12474;SDS011;6302;42.624;23.334;2022-12-18T01:53:38;9.40;;;7.87;;
12474;SDS011;6302;42.624;23.334;2022-12-18T01:56:11;9.90;;;8.10;;
12474;SDS011;6302;42.624;23.334;2022-12-18T01:58:41;11.33;;;8.67;;
12474;SDS011;6302;42.624;23.334;2022-12-18T02:01:14;10.10;;;8.43;;
12474;SDS011;6302;42.624;23.334;2022-12-18T02:03:42;11.87;;;8.90;;
12474;SDS011;6302;42.624;23.334;2022-12-18T02:06:10;14.47;;;10.83;;
12474;SDS011;6302;42.624;23.334;2022-12-18T02:08:43;17.90;;;11.80;;
12474;SDS011;6302;42.624;23.334;2022-12-18T02:11:18;9.97;;;8.50;;
12474;SDS011;6302;42.624;23.334;2022-12-18T02:14:00;22.77;;;13.70;;
12474;SDS011;6302;42.624;23.334;2022-12-18T02:16:37;19.47;;;12.27;;
12474;SDS011;6302;42.624;23.334;2022-12-18T02:19:15;12.50;;;8.80;;
12474;SDS011;6302;42.624;23.334;2022-12-18T02:21:55;9.67;;;8.30;;
12474;SDS011;6302;42.624;23.334;2022-12-18T02:24:32;12.60;;;9.43;;
12474;SDS011;6302;42.624;23.334;2022-12-18T02:27:07;12.00;;;9.60;;
12474;SDS011;6302;42.624;23.334;2022-12-18T02:29:36;10.27;;;8.70;;
12474;SDS011;6302;42.624;23.334;2022-12-18T02:32:08;19.03;;;11.93;;
12474;SDS011;6302;42.624;23.334;2022-12-18T02:34:39;13.73;;;8.93;;
12474;SDS011;6302;42.624;23.334;2022-12-18T02:37:08;12.73;;;9.23;;
12474;SDS011;6302;42.624;23.334;2022-12-18T02:39:39;13.33;;;9.80;;
12474;SDS011;6302;42.624;23.334;2022-12-18T02:42:10;14.93;;;10.50;;
12474;SDS011;6302;42.624;23.334;2022-12-18T02:44:41;11.97;;;9.10;;
12474;SDS011;6302;42.624;23.334;2022-12-18T02:47:09;13.83;;;9.53;;
12474;SDS011;6302;42.624;23.334;2022-12-18T02:49:40;10.07;;;8.87;;
12474;SDS011;6302;42.624;23.334;2022-12-18T02:52:17;9.07;;;7.57;;
12474;SDS011;6302;42.624;23.334;2022-12-18T02:54:56;18.87;;;13.50;;
12474;SDS011;6302;42.624;23.334;2022-12-18T02:57:30;12.60;;;9.17;;
12474;SDS011;6302;42.624;23.334;2022-12-18T03:00:03;17.87;;;10.77;;
12474;SDS011;6302;42.624;23.334;2022-12-18T03:02:34;9.13;;;7.70;;
12474;SDS011;6302;42.624;23.334;2022-12-18T03:05:05;10.70;;;8.13;;
12474;SDS011;6302;42.624;23.334;2022-12-18T03:07:39;10.80;;;8.37;;
12474;SDS011;6302;42.624;23.334;2022-12-18T03:10:11;9.87;;;7.93;;
12474;SDS011;6302;42.624;23.334;2022-12-18T03:12:43;9.97;;;7.93;;
12474;SDS011;6302;42.624;23.334;2022-12-18T03:15:14;9.23;;;8.00;;
12474;SDS011;6302;42.624;23.334;2022-12-18T03:17:46;9.20;;;7.97;;
12474;SDS011;6302;42.624;23.334;2022-12-18T03:20:18;7.53;;;6.73;;
12474;SDS011;6302;42.624;23.334;2022-12-18T03:22:49;10.33;;;7.60;;
12474;SDS011;6302;42.624;23.334;2022-12-18T03:25:20;10.30;;;7.70;;
12474;SDS011;6302;42.624;23.334;2022-12-18T03:27:50;8.17;;;6.70;;
12474;SDS011;6302;42.624;23.334;2022-12-18T03:30:20;7.90;;;7.13;;
12474;SDS011;6302;42.624;23.334;2022-12-18T03:32:47;6.83;;;6.13;;
12474;SDS011;6302;42.624;23.334;2022-12-18T03:35:19;7.63;;;6.53;;
12474;SDS011;6302;42.624;23.334;2022-12-18T03:37:49;6.50;;;5.80;;
12474;SDS011;6302;42.624;23.334;2022-12-18T03:40:16;6.23;;;5.37;;
12474;SDS011;6302;42.624;23.334;2022-12-18T03:42:44;5.30;;;4.80;;
12474;SDS011;6302;42.624;23.334;2022-12-18T03:45:18;7.17;;;4.80;;
12474;SDS011;6302;42.624;23.334;2022-12-18T03:47:53;6.70;;;5.13;;
12474;SDS011;6302;42.624;23.334;2022-12-18T03:50:27;5.40;;;4.40;;
12474;SDS011;6302;42.624;23.334;2022-12-18T03:53:06;6.53;;;5.40;;
12474;SDS011;6302;42.624;23.334;2022-12-18T03:55:40;5.07;;;4.57;;
12474;SDS011;6302;42.624;23.334;2022-12-18T03:58:10;8.07;;;5.73;;
12474;SDS011;6302;42.624;23.334;2022-12-18T04:00:44;5.77;;;5.20;;
12474;SDS011;6302;42.624;23.334;2022-12-18T04:03:12;6.50;;;5.53;;
12474;SDS011;6302;42.624;23.334;2022-12-18T04:05:40;5.80;;;5.17;;
12474;SDS011;6302;42.624;23.334;2022-12-18T04:08:09;6.70;;;5.43;;
12474;SDS011;6302;42.624;23.334;2022-12-18T04:10:36;6.47;;;5.20;;
12474;SDS011;6302;42.624;23.334;2022-12-18T04:13:03;6.33;;;5.13;;
12474;SDS011;6302;42.624;23.334;2022-12-18T04:15:31;5.73;;;4.93;;
12474;SDS011;6302;42.624;23.334;2022-12-18T04:18:02;5.80;;;5.20;;
12474;SDS011;6302;42.624;23.334;2022-12-18T04:20:29;6.77;;;5.40;;
12474;SDS011;6302;42.624;23.334;2022-12-18T04:22:56;5.30;;;4.80;;
12474;SDS011;6302;42.624;23.334;2022-12-18T04:25:23;7.03;;;5.47;;
12474;SDS011;6302;42.624;23.334;2022-12-18T04:27:50;7.30;;;5.20;;
12474;SDS011;6302;42.624;23.334;2022-12-18T04:30:16;6.57;;;5.23;;
12474;SDS011;6302;42.624;23.334;2022-12-18T04:32:43;7.13;;;6.10;;
12474;SDS011;6302;42.624;23.334;2022-12-18T04:35:11;6.67;;;5.97;;
12474;SDS011;6302;42.624;23.334;2022-12-18T04:37:38;7.73;;;5.77;;
12474;SDS011;6302;42.624;23.334;2022-12-18T04:40:05;6.10;;;4.80;;
12474;SDS011;6302;42.624;23.334;2022-12-18T04:42:33;8.40;;;5.77;;
12474;SDS011;6302;42.624;23.334;2022-12-18T04:45:00;6.40;;;5.23;;
12474;SDS011;6302;42.624;23.334;2022-12-18T04:47:27;5.87;;;4.93;;
12474;SDS011;6302;42.624;23.334;2022-12-18T04:49:53;7.07;;;5.87;;
12474;SDS011;6302;42.624;23.334;2022-12-18T04:52:21;9.07;;;5.40;;
12474;SDS011;6302;42.624;23.334;2022-12-18T04:54:48;5.87;;;5.33;;
12474;SDS011;6302;42.624;23.334;2022-12-18T04:57:15;7.23;;;5.53;;
12474;SDS011;6302;42.624;23.334;2022-12-18T04:59:43;6.60;;;5.07;;
12474;SDS011;6302;42.624;23.334;2022-12-18T05:02:09;6.90;;;5.43;;
12474;SDS011;6302;42.624;23.334;2022-12-18T05:04:36;6.37;;;5.77;;
12474;SDS011;6302;42.624;23.334;2022-12-18T05:07:03;6.60;;;5.83;;
12474;SDS011;6302;42.624;23.334;2022-12-18T05:09:31;6.63;;;5.83;;
12474;SDS011;6302;42.624;23.334;2022-12-18T05:11:58;9.13;;;6.10;;
12474;SDS011;6302;42.624;23.334;2022-12-18T05:14:25;9.53;;;5.77;;
12474;SDS011;6302;42.624;23.334;2022-12-18T05:16:52;10.90;;;6.87;;
12474;SDS011;6302;42.624;23.334;2022-12-18T05:19:19;7.57;;;6.00;;
12474;SDS011;6302;42.624;23.334;2022-12-18T05:21:46;7.50;;;6.07;;
12474;SDS011;6302;42.624;23.334;2022-12-18T05:24:13;8.27;;;5.63;;
12474;SDS011;6302;42.624;23.334;2022-12-18T05:26:41;7.70;;;6.60;;
12474;SDS011;6302;42.624;23.334;2022-12-18T05:29:08;8.87;;;6.30;;
12474;SDS011;6302;42.624;23.334;2022-12-18T05:31:37;7.73;;;6.90;;
12474;SDS011;6302;42.624;23.334;2022-12-18T05:34:04;7.57;;;6.47;;
12474;SDS011;6302;42.624;23.334;2022-12-18T05:36:30;9.23;;;6.93;;
12474;SDS011;6302;42.624;23.334;2022-12-18T05:38:57;8.53;;;7.10;;
12474;SDS011;6302;42.624;23.334;2022-12-18T05:41:25;9.70;;;7.37;;
12474;SDS011;6302;42.624;23.334;2022-12-18T05:43:53;8.13;;;6.67;;
12474;SDS011;6302;42.624;23.334;2022-12-18T05:46:20;7.73;;;6.93;;
12474;SDS011;6302;42.624;23.334;2022-12-18T05:48:47;7.67;;;5.33;;
12474;SDS011;6302;42.624;23.334;2022-12-18T05:51:15;8.87;;;7.13;;
12474;SDS011;6302;42.624;23.334;2022-12-18T05:53:44;8.37;;;7.10;;
12474;SDS011;6302;42.624;23.334;2022-12-18T05:56:12;8.43;;;6.77;;
12474;SDS011;6302;42.624;23.334;2022-12-18T05:58:40;9.40;;;8.10;;
12474;SDS011;6302;42.624;23.334;2022-12-18T06:01:10;10.40;;;8.60;;
12474;SDS011;6302;42.624;23.334;2022-12-18T06:03:41;10.57;;;7.60;;
12474;SDS011;6302;42.624;23.334;2022-12-18T06:06:14;11.83;;;8.87;;
12474;SDS011;6302;42.624;23.334;2022-12-18T06:08:42;10.30;;;8.27;;
12474;SDS011;6302;42.624;23.334;2022-12-18T06:11:09;11.57;;;9.00;;
12474;SDS011;6302;42.624;23.334;2022-12-18T06:13:36;11.97;;;9.07;;
12474;SDS011;6302;42.624;23.334;2022-12-18T06:16:04;11.27;;;8.63;;
12474;SDS011;6302;42.624;23.334;2022-12-18T06:18:33;10.67;;;7.77;;
12474;SDS011;6302;42.624;23.334;2022-12-18T06:21:00;9.83;;;8.10;;
12474;SDS011;6302;42.624;23.334;2022-12-18T06:23:27;10.90;;;8.30;;
12474;SDS011;6302;42.624;23.334;2022-12-18T06:25:54;8.73;;;6.50;;
12474;SDS011;6302;42.624;23.334;2022-12-18T06:28:20;10.57;;;7.67;;
12474;SDS011;6302;42.624;23.334;2022-12-18T06:30:47;9.40;;;7.27;;
12474;SDS011;6302;42.624;23.334;2022-12-18T06:33:15;13.10;;;7.63;;
12474;SDS011;6302;42.624;23.334;2022-12-18T06:35:43;9.07;;;7.10;;
12474;SDS011;6302;42.624;23.334;2022-12-18T06:38:10;7.93;;;7.03;;
12474;SDS011;6302;42.624;23.334;2022-12-18T06:40:37;8.13;;;6.47;;
12474;SDS011;6302;42.624;23.334;2022-12-18T06:43:05;8.07;;;6.67;;
12474;SDS011;6302;42.624;23.334;2022-12-18T06:45:32;7.87;;;5.97;;
12474;SDS011;6302;42.624;23.334;2022-12-18T06:47:59;9.30;;;7.23;;
12474;SDS011;6302;42.624;23.334;2022-12-18T06:50:26;8.67;;;7.20;;
12474;SDS011;6302;42.624;23.334;2022-12-18T06:52:55;10.30;;;7.23;;
12474;SDS011;6302;42.624;23.334;2022-12-18T06:55:21;10.07;;;6.57;;
12474;SDS011;6302;42.624;23.334;2022-12-18T06:57:48;9.10;;;6.10;;
12474;SDS011;6302;42.624;23.334;2022-12-18T07:00:15;10.00;;;6.60;;
12474;SDS011;6302;42.624;23.334;2022-12-18T07:02:42;9.53;;;6.70;;
12474;SDS011;6302;42.624;23.334;2022-12-18T07:05:09;11.43;;;7.87;;
12474;SDS011;6302;42.624;23.334;2022-12-18T07:07:36;9.20;;;7.20;;
12474;SDS011;6302;42.624;23.334;2022-12-18T07:10:06;10.43;;;7.37;;
12474;SDS011;6302;42.624;23.334;2022-12-18T07:12:34;8.37;;;6.80;;
12474;SDS011;6302;42.624;23.334;2022-12-18T07:15:00;6.87;;;6.07;;
12474;SDS011;6302;42.624;23.334;2022-12-18T07:17:27;8.73;;;7.37;;
12474;SDS011;6302;42.624;23.334;2022-12-18T07:19:54;8.77;;;6.43;;
12474;SDS011;6302;42.624;23.334;2022-12-18T07:22:21;8.07;;;6.03;;
12474;SDS011;6302;42.624;23.334;2022-12-18T07:24:48;7.97;;;7.13;;
12474;SDS011;6302;42.624;23.334;2022-12-18T07:27:16;7.33;;;6.23;;
12474;SDS011;6302;42.624;23.334;2022-12-18T07:29:43;9.80;;;6.43;;
12474;SDS011;6302;42.624;23.334;2022-12-18T07:32:10;8.60;;;6.63;;
12474;SDS011;6302;42.624;23.334;2022-12-18T07:34:37;11.23;;;7.53;;
12474;SDS011;6302;42.624;23.334;2022-12-18T07:37:04;8.23;;;6.97;;
12474;SDS011;6302;42.624;23.334;2022-12-18T07:39:31;8.47;;;6.40;;
12474;SDS011;6302;42.624;23.334;2022-12-18T07:41:57;11.60;;;7.17;;
12474;SDS011;6302;42.624;23.334;2022-12-18T07:44:43;9.77;;;7.57;;
12474;SDS011;6302;42.624;23.334;2022-12-18T07:47:10;9.83;;;7.57;;
12474;SDS011;6302;42.624;23.334;2022-12-18T07:49:37;8.97;;;7.37;;
12474;SDS011;6302;42.624;23.334;2022-12-18T07:52:04;10.73;;;8.40;;
12474;SDS011;6302;42.624;23.334;2022-12-18T07:54:30;9.47;;;7.27;;
12474;SDS011;6302;42.624;23.334;2022-12-18T07:56:57;10.40;;;7.47;;
12474;SDS011;6302;42.624;23.334;2022-12-18T07:59:24;9.47;;;8.00;;
12474;SDS011;6302;42.624;23.334;2022-12-18T08:01:52;9.60;;;7.33;;
12474;SDS011;6302;42.624;23.334;2022-12-18T08:04:19;8.90;;;6.97;;
12474;SDS011;6302;42.624;23.334;2022-12-18T08:06:46;9.70;;;7.57;;
12474;SDS011;6302;42.624;23.334;2022-12-18T08:09:13;11.17;;;7.33;;
12474;SDS011;6302;42.624;23.334;2022-12-18T08:11:39;9.53;;;8.13;;
12474;SDS011;6302;42.624;23.334;2022-12-18T08:14:07;11.67;;;8.87;;
12474;SDS011;6302;42.624;23.334;2022-12-18T08:16:34;14.30;;;10.57;;
12474;SDS011;6302;42.624;23.334;2022-12-18T08:19:06;13.73;;;10.13;;
12474;SDS011;6302;42.624;23.334;2022-12-18T08:21:33;13.80;;;10.53;;
12474;SDS011;6302;42.624;23.334;2022-12-18T08:24:00;14.87;;;10.17;;
12474;SDS011;6302;42.624;23.334;2022-12-18T08:26:29;15.33;;;10.37;;
12474;SDS011;6302;42.624;23.334;2022-12-18T08:28:57;13.27;;;9.63;;
12474;SDS011;6302;42.624;23.334;2022-12-18T08:31:26;16.23;;;10.90;;
12474;SDS011;6302;42.624;23.334;2022-12-18T08:33:54;16.43;;;10.40;;
12474;SDS011;6302;42.624;23.334;2022-12-18T08:36:23;15.30;;;10.93;;
12474;SDS011;6302;42.624;23.334;2022-12-18T08:38:50;15.60;;;11.33;;
12474;SDS011;6302;42.624;23.334;2022-12-18T08:41:17;14.97;;;11.33;;
12474;SDS011;6302;42.624;23.334;2022-12-18T08:43:44;17.10;;;11.13;;
12474;SDS011;6302;42.624;23.334;2022-12-18T08:46:31;16.30;;;10.63;;
12474;SDS011;6302;42.624;23.334;2022-12-18T08:49:00;15.23;;;10.53;;
12474;SDS011;6302;42.624;23.334;2022-12-18T08:51:29;17.73;;;11.00;;
12474;SDS011;6302;42.624;23.334;2022-12-18T08:53:56;16.67;;;10.97;;
12474;SDS011;6302;42.624;23.334;2022-12-18T08:56:23;16.50;;;10.87;;
12474;SDS011;6302;42.624;23.334;2022-12-18T08:58:55;16.40;;;10.80;;
12474;SDS011;6302;42.624;23.334;2022-12-18T09:01:22;16.63;;;11.73;;
12474;SDS011;6302;42.624;23.334;2022-12-18T09:03:49;22.50;;;12.97;;
12474;SDS011;6302;42.624;23.334;2022-12-18T09:06:17;16.57;;;12.20;;
12474;SDS011;6302;42.624;23.334;2022-12-18T09:08:49;19.67;;;13.50;;
12474;SDS011;6302;42.624;23.334;2022-12-18T09:11:18;20.80;;;14.20;;
12474;SDS011;6302;42.624;23.334;2022-12-18T09:13:47;20.30;;;14.30;;
12474;SDS011;6302;42.624;23.334;2022-12-18T09:16:13;22.37;;;14.33;;
12474;SDS011;6302;42.624;23.334;2022-12-18T09:18:40;19.53;;;13.47;;
12474;SDS011;6302;42.624;23.334;2022-12-18T09:21:08;22.20;;;13.53;;
12474;SDS011;6302;42.624;23.334;2022-12-18T09:23:35;21.30;;;14.20;;
12474;SDS011;6302;42.624;23.334;2022-12-18T09:26:06;22.20;;;14.27;;
12474;SDS011;6302;42.624;23.334;2022-12-18T09:28:33;23.23;;;15.10;;
12474;SDS011;6302;42.624;23.334;2022-12-18T09:31:03;21.90;;;14.40;;
12474;SDS011;6302;42.624;23.334;2022-12-18T09:33:32;21.33;;;15.03;;
12474;SDS011;6302;42.624;23.334;2022-12-18T09:36:00;24.67;;;16.30;;
12474;SDS011;6302;42.624;23.334;2022-12-18T09:38:28;24.73;;;15.33;;
12474;SDS011;6302;42.624;23.334;2022-12-18T09:40:56;26.47;;;14.97;;
12474;SDS011;6302;42.624;23.334;2022-12-18T09:43:28;21.43;;;14.83;;
12474;SDS011;6302;42.624;23.334;2022-12-18T09:45:59;21.20;;;14.77;;
12474;SDS011;6302;42.624;23.334;2022-12-18T09:48:30;21.03;;;14.30;;
12474;SDS011;6302;42.624;23.334;2022-12-18T09:51:00;21.80;;;14.27;;
12474;SDS011;6302;42.624;23.334;2022-12-18T09:53:34;22.13;;;14.70;;
12474;SDS011;6302;42.624;23.334;2022-12-18T09:56:04;21.47;;;15.00;;
12474;SDS011;6302;42.624;23.334;2022-12-18T09:58:34;25.40;;;14.67;;
12474;SDS011;6302;42.624;23.334;2022-12-18T10:01:09;23.53;;;14.37;;
12474;SDS011;6302;42.624;23.334;2022-12-18T10:03:36;20.20;;;13.97;;
12474;SDS011;6302;42.624;23.334;2022-12-18T10:06:04;17.70;;;12.10;;
12474;SDS011;6302;42.624;23.334;2022-12-18T10:08:41;15.83;;;11.97;;
12474;SDS011;6302;42.624;23.334;2022-12-18T10:11:20;13.80;;;10.53;;
12474;SDS011;6302;42.624;23.334;2022-12-18T10:13:57;16.17;;;11.20;;
12474;SDS011;6302;42.624;23.334;2022-12-18T10:16:33;16.10;;;10.57;;
12474;SDS011;6302;42.624;23.334;2022-12-18T10:19:09;17.00;;;11.10;;
12474;SDS011;6302;42.624;23.334;2022-12-18T10:21:45;15.30;;;11.57;;
12474;SDS011;6302;42.624;23.334;2022-12-18T10:24:20;19.47;;;12.80;;
12474;SDS011;6302;42.624;23.334;2022-12-18T10:26:52;16.80;;;11.90;;
12474;SDS011;6302;42.624;23.334;2022-12-18T10:29:28;18.67;;;12.43;;
12474;SDS011;6302;42.624;23.334;2022-12-18T10:31:55;20.37;;;13.03;;
12474;SDS011;6302;42.624;23.334;2022-12-18T10:34:21;21.47;;;13.47;;
12474;SDS011;6302;42.624;23.334;2022-12-18T10:36:49;16.70;;;11.80;;
12474;SDS011;6302;42.624;23.334;2022-12-18T10:39:17;19.27;;;12.30;;
12474;SDS011;6302;42.624;23.334;2022-12-18T10:41:47;18.50;;;12.07;;
12474;SDS011;6302;42.624;23.334;2022-12-18T10:44:16;19.03;;;11.87;;
12474;SDS011;6302;42.624;23.334;2022-12-18T10:46:45;20.03;;;12.60;;
12474;SDS011;6302;42.624;23.334;2022-12-18T10:49:18;18.00;;;12.77;;
12474;SDS011;6302;42.624;23.334;2022-12-18T10:51:48;17.80;;;11.93;;
12474;SDS011;6302;42.624;23.334;2022-12-18T10:54:16;19.80;;;13.27;;
12474;SDS011;6302;42.624;23.334;2022-12-18T10:56:45;17.37;;;11.30;;
12474;SDS011;6302;42.624;23.334;2022-12-18T10:59:13;19.93;;;12.70;;
12474;SDS011;6302;42.624;23.334;2022-12-18T11:01:51;18.10;;;11.40;;
12474;SDS011;6302;42.624;23.334;2022-12-18T11:04:20;16.27;;;10.67;;
12474;SDS011;6302;42.624;23.334;2022-12-18T11:06:56;16.37;;;10.77;;
12474;SDS011;6302;42.624;23.334;2022-12-18T11:09:25;17.60;;;10.57;;
12474;SDS011;6302;42.624;23.334;2022-12-18T11:11:54;13.87;;;9.77;;
12474;SDS011;6302;42.624;23.334;2022-12-18T11:14:24;15.37;;;9.13;;
12474;SDS011;6302;42.624;23.334;2022-12-18T11:16:54;12.53;;;9.57;;
12474;SDS011;6302;42.624;23.334;2022-12-18T11:19:27;12.20;;;8.43;;
12474;SDS011;6302;42.624;23.334;2022-12-18T11:21:57;12.87;;;8.47;;
12474;SDS011;6302;42.624;23.334;2022-12-18T11:24:27;13.23;;;8.60;;
12474;SDS011;6302;42.624;23.334;2022-12-18T11:26:57;14.17;;;8.90;;
12474;SDS011;6302;42.624;23.334;2022-12-18T11:29:28;13.40;;;8.27;;
12474;SDS011;6302;42.624;23.334;2022-12-18T11:32:19;12.13;;;9.10;;
12474;SDS011;6302;42.624;23.334;2022-12-18T11:34:52;12.10;;;8.63;;
12474;SDS011;6302;42.624;23.334;2022-12-18T11:37:24;10.53;;;8.33;;
12474;SDS011;6302;42.624;23.334;2022-12-18T11:39:54;12.03;;;8.23;;
12474;SDS011;6302;42.624;23.334;2022-12-18T11:42:27;12.43;;;8.17;;
12474;SDS011;6302;42.624;23.334;2022-12-18T11:45:02;10.03;;;7.40;;
12474;SDS011;6302;42.624;23.334;2022-12-18T11:47:48;9.80;;;7.77;;
12474;SDS011;6302;42.624;23.334;2022-12-18T11:50:21;11.53;;;7.87;;
12474;SDS011;6302;42.624;23.334;2022-12-18T11:52:51;10.57;;;7.80;;
12474;SDS011;6302;42.624;23.334;2022-12-18T11:55:21;10.33;;;7.47;;
12474;SDS011;6302;42.624;23.334;2022-12-18T11:57:55;10.40;;;7.53;;
12474;SDS011;6302;42.624;23.334;2022-12-18T12:00:34;17.33;;;9.90;;
12474;SDS011;6302;42.624;23.334;2022-12-18T12:03:14;13.43;;;9.40;;
12474;SDS011;6302;42.624;23.334;2022-12-18T12:05:56;16.97;;;10.60;;
12474;SDS011;6302;42.624;23.334;2022-12-18T12:08:35;13.60;;;8.83;;
12474;SDS011;6302;42.624;23.334;2022-12-18T12:11:13;15.97;;;10.20;;
12474;SDS011;6302;42.624;23.334;2022-12-18T12:14:01;14.83;;;10.10;;
12474;SDS011;6302;42.624;23.334;2022-12-18T12:16:37;16.87;;;10.37;;
12474;SDS011;6302;42.624;23.334;2022-12-18T12:19:19;15.57;;;9.53;;
12474;SDS011;6302;42.624;23.334;2022-12-18T12:21:56;13.80;;;9.07;;
12474;SDS011;6302;42.624;23.334;2022-12-18T12:24:33;13.70;;;9.97;;
12474;SDS011;6302;42.624;23.334;2022-12-18T12:27:14;14.53;;;10.10;;
12474;SDS011;6302;42.624;23.334;2022-12-18T12:29:47;15.27;;;10.50;;
12474;SDS011;6302;42.624;23.334;2022-12-18T12:32:28;13.90;;;9.13;;
12474;SDS011;6302;42.624;23.334;2022-12-18T12:35:08;13.67;;;9.83;;
12474;SDS011;6302;42.624;23.334;2022-12-18T12:37:48;14.83;;;9.90;;
12474;SDS011;6302;42.624;23.334;2022-12-18T12:40:27;17.47;;;10.53;;
12474;SDS011;6302;42.624;23.334;2022-12-18T12:42:57;15.87;;;12.10;;
12474;SDS011;6302;42.624;23.334;2022-12-18T12:45:40;13.83;;;10.93;;
12474;SDS011;6302;42.624;23.334;2022-12-18T12:48:15;12.10;;;9.37;;
12474;SDS011;6302;42.624;23.334;2022-12-18T12:50:46;12.03;;;8.90;;
12474;SDS011;6302;42.624;23.334;2022-12-18T12:53:17;15.90;;;10.83;;
12474;SDS011;6302;42.624;23.334;2022-12-18T12:55:49;14.80;;;9.63;;
12474;SDS011;6302;42.624;23.334;2022-12-18T12:58:19;16.37;;;10.67;;
12474;SDS011;6302;42.624;23.334;2022-12-18T13:00:54;15.23;;;10.03;;
12474;SDS011;6302;42.624;23.334;2022-12-18T13:03:29;16.27;;;10.30;;
12474;SDS011;6302;42.624;23.334;2022-12-18T13:06:04;16.43;;;10.70;;
12474;SDS011;6302;42.624;23.334;2022-12-18T13:08:51;16.77;;;10.63;;
12474;SDS011;6302;42.624;23.334;2022-12-18T13:11:28;16.47;;;10.53;;
12474;SDS011;6302;42.624;23.334;2022-12-18T13:14:20;16.00;;;10.57;;
12474;SDS011;6302;42.624;23.334;2022-12-18T13:16:48;16.50;;;11.47;;
12474;SDS011;6302;42.624;23.334;2022-12-18T13:19:21;16.67;;;10.97;;
12474;SDS011;6302;42.624;23.334;2022-12-18T13:21:53;18.43;;;11.40;;
12474;SDS011;6302;42.624;23.334;2022-12-18T13:24:23;19.23;;;11.77;;
12474;SDS011;6302;42.624;23.334;2022-12-18T13:26:52;15.47;;;10.90;;
12474;SDS011;6302;42.624;23.334;2022-12-18T13:29:40;17.23;;;11.77;;
12474;SDS011;6302;42.624;23.334;2022-12-18T13:32:20;16.00;;;11.37;;
12474;SDS011;6302;42.624;23.334;2022-12-18T13:34:48;16.37;;;11.50;;
12474;SDS011;6302;42.624;23.334;2022-12-18T13:43:23;15.30;;;9.87;;
12474;SDS011;6302;42.624;23.334;2022-12-18T13:48:54;16.57;;;10.97;;
12474;SDS011;6302;42.624;23.334;2022-12-18T13:51:23;17.00;;;10.90;;
12474;SDS011;6302;42.624;23.334;2022-12-18T13:53:53;13.90;;;10.57;;
12474;SDS011;6302;42.624;23.334;2022-12-18T13:56:23;17.97;;;11.17;;
12474;SDS011;6302;42.624;23.334;2022-12-18T13:59:13;17.83;;;11.60;;
12474;SDS011;6302;42.624;23.334;2022-12-18T14:01:46;14.90;;;10.77;;
12474;SDS011;6302;42.624;23.334;2022-12-18T14:04:19;15.97;;;10.93;;
12474;SDS011;6302;42.624;23.334;2022-12-18T14:06:49;16.63;;;11.37;;
12474;SDS011;6302;42.624;23.334;2022-12-18T14:09:22;16.77;;;11.37;;
12474;SDS011;6302;42.624;23.334;2022-12-18T14:11:51;16.33;;;11.27;;
12474;SDS011;6302;42.624;23.334;2022-12-18T14:14:42;16.10;;;10.80;;
12474;SDS011;6302;42.624;23.334;2022-12-18T14:17:11;17.70;;;11.77;;
12474;SDS011;6302;42.624;23.334;2022-12-18T14:19:40;17.47;;;12.80;;
12474;SDS011;6302;42.624;23.334;2022-12-18T14:22:12;16.20;;;12.37;;
12474;SDS011;6302;42.624;23.334;2022-12-18T14:24:43;19.77;;;13.30;;
12474;SDS011;6302;42.624;23.334;2022-12-18T14:27:21;19.63;;;13.70;;
12474;SDS011;6302;42.624;23.334;2022-12-18T14:29:49;18.67;;;13.00;;
12474;SDS011;6302;42.624;23.334;2022-12-18T14:32:16;17.47;;;12.10;;
12474;SDS011;6302;42.624;23.334;2022-12-18T14:34:45;14.43;;;10.80;;
12474;SDS011;6302;42.624;23.334;2022-12-18T14:37:13;17.80;;;11.50;;
12474;SDS011;6302;42.624;23.334;2022-12-18T14:39:53;18.13;;;10.90;;
12474;SDS011;6302;42.624;23.334;2022-12-18T14:42:30;16.27;;;11.50;;
12474;SDS011;6302;42.624;23.334;2022-12-18T14:48:11;17.10;;;11.10;;
12474;SDS011;6302;42.624;23.334;2022-12-18T14:50:43;14.70;;;10.27;;
12474;SDS011;6302;42.624;23.334;2022-12-18T14:53:20;15.50;;;10.07;;
12474;SDS011;6302;42.624;23.334;2022-12-18T14:55:50;13.23;;;9.90;;
12474;SDS011;6302;42.624;23.334;2022-12-18T14:58:18;15.97;;;10.23;;
12474;SDS011;6302;42.624;23.334;2022-12-18T15:00:45;23.97;;;15.53;;
12474;SDS011;6302;42.624;23.334;2022-12-18T15:03:12;20.90;;;12.80;;
12474;SDS011;6302;42.624;23.334;2022-12-18T15:05:45;16.67;;;11.70;;
12474;SDS011;6302;42.624;23.334;2022-12-18T15:08:27;24.63;;;19.47;;
12474;SDS011;6302;42.624;23.334;2022-12-18T15:11:03;18.20;;;13.87;;